createdAt,value
2023-02-11T00:09:34.357Z,7.12
2023-02-11T00:58:36.407Z,7.09
2023-02-11T01:10:06.413Z,7.06
2023-02-11T01:40:17.243Z,7.17
2023-02-11T01:57:46.047Z,7.10
2023-02-11T02:10:24.027Z,7.13
2023-02-11T03:13:08.373Z,7.28
2023-02-11T03:18:06.964Z,7.28
2023-02-11T08:32:58.981Z,8.36
2023-02-11T10:24:09.431Z,8.96
2023-02-11T10:42:30.891Z,9.02
2023-02-11T10:47:48.060Z,8.97
2023-02-11T11:05:23.237Z,9.07
2023-02-11T13:42:03.524Z,9.41
2023-02-11T13:47:06.981Z,9.51
2023-02-11T13:52:07.685Z,9.64
2023-02-11T13:57:56.754Z,9.77
2023-02-11T14:22:44.904Z,9.51
2023-02-11T14:34:59.098Z,9.58
2023-02-11T14:46:36.715Z,9.58
2023-02-11T15:41:36.142Z,9.17
2023-02-11T15:52:46.315Z,9.06
2023-02-11T15:58:35.388Z,8.97
2023-02-11T16:03:39.028Z,9.03
2023-02-11T16:09:02.104Z,8.98
2023-02-11T16:14:25.589Z,9.01
2023-02-11T16:19:25.987Z,8.98
2023-02-11T16:24:51.593Z,8.92
2023-02-11T16:29:49.750Z,8.90
2023-02-11T16:34:47.362Z,8.83
2023-02-11T16:39:47.769Z,8.92
2023-02-11T17:09:49.062Z,8.96
2023-02-11T17:46:18.906Z,8.75
2023-02-11T17:51:31.503Z,8.71
2023-02-11T17:56:34.362Z,8.68
2023-02-11T18:01:34.793Z,8.88
2023-02-11T18:06:36.258Z,8.77
2023-02-11T18:11:34.013Z,8.73
2023-02-11T18:16:40.226Z,8.88
2023-02-11T18:21:37.566Z,8.88
2023-02-11T18:26:40.340Z,8.89
2023-02-11T18:31:40.035Z,8.89
2023-02-11T18:36:37.042Z,8.94
2023-02-11T18:41:33.703Z,8.92
2023-02-11T18:46:33.643Z,8.81
2023-02-11T18:51:36.395Z,8.93
2023-02-11T18:56:34.922Z,8.93
2023-02-11T19:01:33.882Z,8.88
2023-02-11T19:06:36.225Z,8.85
2023-02-11T19:11:49.361Z,8.77
2023-02-11T19:16:47.209Z,8.94
2023-02-11T19:21:48.281Z,8.93
2023-02-11T19:27:00.096Z,8.99
2023-02-11T19:37:10.685Z,8.91
2023-02-11T19:42:07.280Z,8.94
2023-02-11T19:47:04.466Z,8.79
2023-02-11T19:52:05.999Z,8.83
2023-02-11T19:57:08.401Z,8.79
2023-02-11T20:02:05.039Z,8.96
2023-02-11T20:07:03.911Z,8.91
2023-02-11T20:12:00.545Z,8.79
2023-02-11T20:17:02.422Z,8.91
2023-02-11T20:22:32.301Z,8.90
2023-02-11T20:27:32.245Z,9.05
2023-02-11T20:32:34.218Z,9.03
2023-02-11T20:37:30.868Z,8.98
2023-02-11T20:42:33.373Z,9.11
2023-02-11T20:47:31.102Z,9.08
2023-02-11T20:52:30.842Z,9.01
2023-02-11T20:57:28.229Z,9.16
2023-02-11T21:02:27.431Z,9.16
2023-02-11T21:07:24.208Z,9.11
2023-02-11T21:12:20.708Z,9.03
2023-02-11T21:17:17.672Z,9.10
2023-02-11T21:22:15.108Z,8.90
2023-02-11T21:27:15.723Z,9.02
2023-02-11T21:32:12.359Z,8.94
2023-02-11T21:37:12.069Z,9.00
2023-02-11T21:42:16.494Z,8.97
2023-02-11T21:52:41.310Z,8.94
2023-02-11T21:57:44.272Z,9.04
2023-02-11T22:02:42.260Z,9.05
2023-02-11T22:07:56.030Z,8.93
2023-02-11T22:13:24.623Z,8.97
2023-02-11T22:24:51.046Z,8.81
2023-02-11T22:47:30.507Z,8.69
2023-02-11T22:52:32.297Z,8.78
2023-02-11T22:57:30.639Z,8.83
2023-02-11T23:08:09.176Z,8.68
2023-02-11T23:25:08.394Z,8.57
2023-02-11T23:36:03.844Z,8.63
2023-02-11T23:41:00.443Z,8.71
2023-02-11T23:51:30.289Z,8.57
2023-02-11T23:56:27.884Z,8.66
